sensor_id;sensor_type;location;lat;lon;timestamp;P1;durP1;ratioP1;P2;durP2;ratioP2
6414;SDS011;3240;48.790;9.210;2023-05-10T00:00:34;2.30;;;1.60;;
6414;SDS011;3240;48.790;9.210;2023-05-10T00:03:02;2.00;;;1.80;;
6414;SDS011;3240;48.790;9.210;2023-05-10T00:05:31;2.13;;;1.53;;
6414;SDS011;3240;48.790;9.210;2023-05-10T00:07:59;1.60;;;1.47;;
6414;SDS011;3240;48.790;9.210;2023-05-10T00:10:27;2.87;;;2.07;;
6414;SDS011;3240;48.790;9.210;2023-05-10T00:12:56;2.03;;;1.60;;
6414;SDS011;3240;48.790;9.210;2023-05-10T00:15:24;1.93;;;1.73;;
6414;SDS011;3240;48.790;9.210;2023-05-10T00:17:52;2.07;;;1.70;;
6414;SDS011;3240;48.790;9.210;2023-05-10T00:20:21;1.47;;;1.37;;
6414;SDS011;3240;48.790;9.210;2023-05-10T00:22:49;2.77;;;1.90;;
6414;SDS011;3240;48.790;9.210;2023-05-10T00:25:17;1.80;;;1.57;;
6414;SDS011;3240;48.790;9.210;2023-05-10T00:27:46;1.53;;;1.43;;
6414;SDS011;3240;48.790;9.210;2023-05-10T00:30:14;1.33;;;1.20;;
6414;SDS011;3240;48.790;9.210;2023-05-10T00:32:42;1.30;;;1.20;;
6414;SDS011;3240;48.790;9.210;2023-05-10T00:35:11;2.40;;;1.60;;
6414;SDS011;3240;48.790;9.210;2023-05-10T00:37:39;3.23;;;1.40;;
6414;SDS011;3240;48.790;9.210;2023-05-10T00:40:07;1.90;;;1.40;;
6414;SDS011;3240;48.790;9.210;2023-05-10T00:42:36;1.50;;;1.40;;
6414;SDS011;3240;48.790;9.210;2023-05-10T00:45:04;1.80;;;1.40;;
6414;SDS011;3240;48.790;9.210;2023-05-10T00:47:33;2.10;;;1.80;;
6414;SDS011;3240;48.790;9.210;2023-05-10T00:50:01;1.57;;;1.47;;
6414;SDS011;3240;48.790;9.210;2023-05-10T00:52:30;1.60;;;1.50;;
6414;SDS011;3240;48.790;9.210;2023-05-10T00:54:58;2.17;;;1.60;;
6414;SDS011;3240;48.790;9.210;2023-05-10T00:57:26;1.57;;;1.40;;
6414;SDS011;3240;48.790;9.210;2023-05-10T00:59:55;3.30;;;1.40;;
6414;SDS011;3240;48.790;9.210;2023-05-10T01:02:23;1.37;;;1.27;;
6414;SDS011;3240;48.790;9.210;2023-05-10T01:04:51;2.67;;;1.57;;
6414;SDS011;3240;48.790;9.210;2023-05-10T01:07:20;2.20;;;1.70;;
6414;SDS011;3240;48.790;9.210;2023-05-10T01:09:48;1.33;;;1.20;;
6414;SDS011;3240;48.790;9.210;2023-05-10T01:12:16;1.97;;;1.50;;
6414;SDS011;3240;48.790;9.210;2023-05-10T01:14:45;1.30;;;1.03;;
6414;SDS011;3240;48.790;9.210;2023-05-10T01:17:13;1.47;;;1.37;;
6414;SDS011;3240;48.790;9.210;2023-05-10T01:19:41;2.30;;;1.40;;
6414;SDS011;3240;48.790;9.210;2023-05-10T01:27:36;1.57;;;1.40;;
6414;SDS011;3240;48.790;9.210;2023-05-10T01:30:08;1.83;;;1.50;;
6414;SDS011;3240;48.790;9.210;2023-05-10T01:33:15;2.00;;;1.30;;
6414;SDS011;3240;48.790;9.210;2023-05-10T01:35:25;1.50;;;1.37;;
6414;SDS011;3240;48.790;9.210;2023-05-10T01:40:25;2.00;;;1.53;;
6414;SDS011;3240;48.790;9.210;2023-05-10T01:42:54;1.97;;;1.13;;
6414;SDS011;3240;48.790;9.210;2023-05-10T01:45:24;1.87;;;1.47;;
6414;SDS011;3240;48.790;9.210;2023-05-10T01:47:51;1.60;;;1.50;;
6414;SDS011;3240;48.790;9.210;2023-05-10T01:50:19;1.00;;;0.90;;
6414;SDS011;3240;48.790;9.210;2023-05-10T01:52:50;2.40;;;1.40;;
6414;SDS011;3240;48.790;9.210;2023-05-10T01:55:16;1.10;;;1.00;;
6414;SDS011;3240;48.790;9.210;2023-05-10T01:57:44;1.10;;;1.00;;
6414;SDS011;3240;48.790;9.210;2023-05-10T02:00:13;1.40;;;1.30;;
6414;SDS011;3240;48.790;9.210;2023-05-10T02:02:42;0.93;;;0.93;;
6414;SDS011;3240;48.790;9.210;2023-05-10T02:05:09;1.37;;;1.20;;
6414;SDS011;3240;48.790;9.210;2023-05-10T02:07:37;1.83;;;1.50;;
6414;SDS011;3240;48.790;9.210;2023-05-10T02:10:06;1.80;;;1.50;;
6414;SDS011;3240;48.790;9.210;2023-05-10T02:12:35;1.47;;;1.00;;
6414;SDS011;3240;48.790;9.210;2023-05-10T02:15:04;1.30;;;1.10;;
6414;SDS011;3240;48.790;9.210;2023-05-10T02:17:32;1.57;;;1.20;;
6414;SDS011;3240;48.790;9.210;2023-05-10T02:20:01;0.90;;;0.80;;
6414;SDS011;3240;48.790;9.210;2023-05-10T02:22:28;1.30;;;1.13;;
6414;SDS011;3240;48.790;9.210;2023-05-10T02:24:57;1.10;;;1.00;;
6414;SDS011;3240;48.790;9.210;2023-05-10T02:27:25;2.40;;;1.60;;
6414;SDS011;3240;48.790;9.210;2023-05-10T02:29:53;1.20;;;1.10;;
6414;SDS011;3240;48.790;9.210;2023-05-10T02:32:22;1.40;;;1.30;;
6414;SDS011;3240;48.790;9.210;2023-05-10T02:34:50;3.77;;;1.27;;
6414;SDS011;3240;48.790;9.210;2023-05-10T02:37:19;2.25;;;1.23;;
6414;SDS011;3240;48.790;9.210;2023-05-10T02:39:47;1.80;;;1.20;;
6414;SDS011;3240;48.790;9.210;2023-05-10T02:42:19;1.20;;;1.10;;
6414;SDS011;3240;48.790;9.210;2023-05-10T02:44:48;1.00;;;0.90;;
6414;SDS011;3240;48.790;9.210;2023-05-10T02:47:16;1.10;;;0.90;;
6414;SDS011;3240;48.790;9.210;2023-05-10T02:49:44;1.10;;;1.00;;
6414;SDS011;3240;48.790;9.210;2023-05-10T02:52:12;1.40;;;0.90;;
6414;SDS011;3240;48.790;9.210;2023-05-10T02:54:43;1.63;;;1.30;;
6414;SDS011;3240;48.790;9.210;2023-05-10T02:57:10;1.63;;;1.10;;
6414;SDS011;3240;48.790;9.210;2023-05-10T02:59:38;1.63;;;1.30;;
6414;SDS011;3240;48.790;9.210;2023-05-10T03:02:06;1.17;;;1.00;;
6414;SDS011;3240;48.790;9.210;2023-05-10T03:04:34;1.23;;;0.90;;
6414;SDS011;3240;48.790;9.210;2023-05-10T03:07:03;1.30;;;0.87;;
6414;SDS011;3240;48.790;9.210;2023-05-10T03:09:31;1.20;;;1.10;;
6414;SDS011;3240;48.790;9.210;2023-05-10T03:12:02;1.10;;;1.00;;
6414;SDS011;3240;48.790;9.210;2023-05-10T03:14:40;1.27;;;0.90;;
6414;SDS011;3240;48.790;9.210;2023-05-10T03:17:06;1.50;;;1.00;;
6414;SDS011;3240;48.790;9.210;2023-05-10T03:19:32;1.23;;;1.10;;
6414;SDS011;3240;48.790;9.210;2023-05-10T03:22:03;1.10;;;1.00;;
6414;SDS011;3240;48.790;9.210;2023-05-10T03:24:29;1.07;;;0.90;;
6414;SDS011;3240;48.790;9.210;2023-05-10T03:26:58;1.10;;;1.00;;
6414;SDS011;3240;48.790;9.210;2023-05-10T03:29:25;1.13;;;1.00;;
6414;SDS011;3240;48.790;9.210;2023-05-10T03:31:54;0.93;;;0.83;;
6414;SDS011;3240;48.790;9.210;2023-05-10T03:34:23;1.60;;;1.10;;
6414;SDS011;3240;48.790;9.210;2023-05-10T03:36:51;0.80;;;0.80;;
6414;SDS011;3240;48.790;9.210;2023-05-10T03:39:19;1.77;;;0.87;;
6414;SDS011;3240;48.790;9.210;2023-05-10T03:41:48;1.00;;;0.80;;
6414;SDS011;3240;48.790;9.210;2023-05-10T03:44:16;1.33;;;1.10;;
6414;SDS011;3240;48.790;9.210;2023-05-10T03:46:44;1.43;;;1.00;;
6414;SDS011;3240;48.790;9.210;2023-05-10T03:49:13;1.93;;;1.13;;
6414;SDS011;3240;48.790;9.210;2023-05-10T03:51:41;0.87;;;0.87;;
6414;SDS011;3240;48.790;9.210;2023-05-10T03:54:09;1.03;;;0.90;;
6414;SDS011;3240;48.790;9.210;2023-05-10T03:56:38;1.10;;;1.00;;
6414;SDS011;3240;48.790;9.210;2023-05-10T03:59:06;1.10;;;0.97;;
6414;SDS011;3240;48.790;9.210;2023-05-10T04:01:34;2.20;;;1.10;;
6414;SDS011;3240;48.790;9.210;2023-05-10T04:04:03;0.80;;;0.80;;
6414;SDS011;3240;48.790;9.210;2023-05-10T04:06:31;0.83;;;0.80;;
6414;SDS011;3240;48.790;9.210;2023-05-10T04:08:59;0.80;;;0.63;;
6414;SDS011;3240;48.790;9.210;2023-05-10T04:11:28;1.00;;;0.73;;
6414;SDS011;3240;48.790;9.210;2023-05-10T04:13:56;1.23;;;1.10;;
6414;SDS011;3240;48.790;9.210;2023-05-10T04:16:24;1.13;;;0.87;;
6414;SDS011;3240;48.790;9.210;2023-05-10T04:18:53;1.00;;;0.90;;
6414;SDS011;3240;48.790;9.210;2023-05-10T04:21:21;1.40;;;1.00;;
6414;SDS011;3240;48.790;9.210;2023-05-10T04:23:49;0.90;;;0.90;;
6414;SDS011;3240;48.790;9.210;2023-05-10T04:26:18;0.90;;;0.90;;
6414;SDS011;3240;48.790;9.210;2023-05-10T04:28:46;1.03;;;0.93;;
6414;SDS011;3240;48.790;9.210;2023-05-10T04:31:14;1.47;;;0.73;;
6414;SDS011;3240;48.790;9.210;2023-05-10T04:33:43;1.30;;;0.90;;
6414;SDS011;3240;48.790;9.210;2023-05-10T04:36:11;1.37;;;1.07;;
6414;SDS011;3240;48.790;9.210;2023-05-10T04:38:39;1.10;;;0.77;;
6414;SDS011;3240;48.790;9.210;2023-05-10T04:41:09;0.83;;;0.80;;
6414;SDS011;3240;48.790;9.210;2023-05-10T04:43:36;1.37;;;0.90;;
6414;SDS011;3240;48.790;9.210;2023-05-10T04:46:05;0.87;;;0.80;;
6414;SDS011;3240;48.790;9.210;2023-05-10T04:48:33;0.70;;;0.70;;
6414;SDS011;3240;48.790;9.210;2023-05-10T04:51:01;1.17;;;1.00;;
6414;SDS011;3240;48.790;9.210;2023-05-10T04:53:29;1.10;;;0.90;;
6414;SDS011;3240;48.790;9.210;2023-05-10T04:55:58;0.87;;;0.70;;
6414;SDS011;3240;48.790;9.210;2023-05-10T04:58:26;0.83;;;0.77;;
6414;SDS011;3240;48.790;9.210;2023-05-10T05:00:54;1.10;;;1.00;;
6414;SDS011;3240;48.790;9.210;2023-05-10T05:03:23;1.30;;;0.80;;
6414;SDS011;3240;48.790;9.210;2023-05-10T05:05:51;0.90;;;0.77;;
6414;SDS011;3240;48.790;9.210;2023-05-10T05:08:19;1.10;;;1.00;;
6414;SDS011;3240;48.790;9.210;2023-05-10T05:10:48;1.10;;;0.77;;
6414;SDS011;3240;48.790;9.210;2023-05-10T05:13:16;1.47;;;0.80;;
6414;SDS011;3240;48.790;9.210;2023-05-10T05:15:44;1.00;;;0.87;;
6414;SDS011;3240;48.790;9.210;2023-05-10T05:18:13;1.00;;;0.90;;
6414;SDS011;3240;48.790;9.210;2023-05-10T05:20:41;0.90;;;0.73;;
6414;SDS011;3240;48.790;9.210;2023-05-10T05:23:09;1.77;;;0.80;;
6414;SDS011;3240;48.790;9.210;2023-05-10T05:25:38;0.90;;;0.77;;
6414;SDS011;3240;48.790;9.210;2023-05-10T05:28:06;1.30;;;0.80;;
6414;SDS011;3240;48.790;9.210;2023-05-10T05:30:34;1.00;;;0.73;;
6414;SDS011;3240;48.790;9.210;2023-05-10T05:33:03;0.90;;;0.70;;
6414;SDS011;3240;48.790;9.210;2023-05-10T05:35:31;0.80;;;0.80;;
6414;SDS011;3240;48.790;9.210;2023-05-10T05:37:59;1.07;;;0.70;;
6414;SDS011;3240;48.790;9.210;2023-05-10T05:40:28;1.53;;;0.83;;
6414;SDS011;3240;48.790;9.210;2023-05-10T05:42:56;1.83;;;0.70;;
6414;SDS011;3240;48.790;9.210;2023-05-10T05:45:24;1.07;;;0.80;;
6414;SDS011;3240;48.790;9.210;2023-05-10T05:47:53;1.00;;;0.70;;
6414;SDS011;3240;48.790;9.210;2023-05-10T05:50:21;1.27;;;1.07;;
6414;SDS011;3240;48.790;9.210;2023-05-10T05:52:49;2.90;;;0.70;;
6414;SDS011;3240;48.790;9.210;2023-05-10T05:55:18;1.00;;;0.90;;
6414;SDS011;3240;48.790;9.210;2023-05-10T05:57:46;0.60;;;0.60;;
6414;SDS011;3240;48.790;9.210;2023-05-10T06:00:14;1.17;;;0.73;;
6414;SDS011;3240;48.790;9.210;2023-05-10T06:02:43;0.80;;;0.70;;
6414;SDS011;3240;48.790;9.210;2023-05-10T06:05:11;1.30;;;0.70;;
6414;SDS011;3240;48.790;9.210;2023-05-10T06:07:39;1.07;;;0.70;;
6414;SDS011;3240;48.790;9.210;2023-05-10T06:10:08;1.17;;;0.80;;
6414;SDS011;3240;48.790;9.210;2023-05-10T06:12:37;0.97;;;0.70;;
6414;SDS011;3240;48.790;9.210;2023-05-10T06:15:05;0.90;;;0.57;;
6414;SDS011;3240;48.790;9.210;2023-05-10T06:17:34;1.00;;;0.90;;
6414;SDS011;3240;48.790;9.210;2023-05-10T06:20:02;3.63;;;0.60;;
6414;SDS011;3240;48.790;9.210;2023-05-10T06:22:30;1.53;;;1.00;;
6414;SDS011;3240;48.790;9.210;2023-05-10T06:24:59;0.87;;;0.70;;
6414;SDS011;3240;48.790;9.210;2023-05-10T06:27:27;1.20;;;1.10;;
6414;SDS011;3240;48.790;9.210;2023-05-10T06:29:55;0.80;;;0.80;;
6414;SDS011;3240;48.790;9.210;2023-05-10T06:32:24;2.20;;;0.70;;
6414;SDS011;3240;48.790;9.210;2023-05-10T06:34:52;1.00;;;0.77;;
6414;SDS011;3240;48.790;9.210;2023-05-10T06:37:20;0.73;;;0.73;;
6414;SDS011;3240;48.790;9.210;2023-05-10T06:39:49;0.70;;;0.70;;
6414;SDS011;3240;48.790;9.210;2023-05-10T06:42:17;1.00;;;0.90;;
6414;SDS011;3240;48.790;9.210;2023-05-10T06:44:45;0.80;;;0.70;;
6414;SDS011;3240;48.790;9.210;2023-05-10T06:47:14;1.00;;;0.80;;
6414;SDS011;3240;48.790;9.210;2023-05-10T06:49:42;1.17;;;0.80;;
6414;SDS011;3240;48.790;9.210;2023-05-10T06:52:10;0.80;;;0.70;;
6414;SDS011;3240;48.790;9.210;2023-05-10T06:54:39;1.23;;;0.70;;
6414;SDS011;3240;48.790;9.210;2023-05-10T06:57:07;1.07;;;0.70;;
6414;SDS011;3240;48.790;9.210;2023-05-10T06:59:35;1.30;;;0.87;;
6414;SDS011;3240;48.790;9.210;2023-05-10T07:02:04;0.70;;;0.70;;
6414;SDS011;3240;48.790;9.210;2023-05-10T07:04:32;0.80;;;0.70;;
6414;SDS011;3240;48.790;9.210;2023-05-10T07:07:00;1.10;;;0.90;;
6414;SDS011;3240;48.790;9.210;2023-05-10T07:09:29;0.90;;;0.63;;
6414;SDS011;3240;48.790;9.210;2023-05-10T07:11:57;0.80;;;0.60;;
6414;SDS011;3240;48.790;9.210;2023-05-10T07:14:25;1.47;;;0.83;;
6414;SDS011;3240;48.790;9.210;2023-05-10T07:16:54;1.00;;;0.90;;
6414;SDS011;3240;48.790;9.210;2023-05-10T07:19:22;1.43;;;0.97;;
6414;SDS011;3240;48.790;9.210;2023-05-10T07:21:50;0.90;;;0.80;;
6414;SDS011;3240;48.790;9.210;2023-05-10T07:24:19;0.70;;;0.70;;
6414;SDS011;3240;48.790;9.210;2023-05-10T07:26:47;0.90;;;0.67;;
6414;SDS011;3240;48.790;9.210;2023-05-10T07:29:15;1.20;;;0.83;;
6414;SDS011;3240;48.790;9.210;2023-05-10T07:31:44;0.93;;;0.73;;
6414;SDS011;3240;48.790;9.210;2023-05-10T07:34:12;3.53;;;0.70;;
6414;SDS011;3240;48.790;9.210;2023-05-10T07:36:40;0.87;;;0.60;;
6414;SDS011;3240;48.790;9.210;2023-05-10T07:39:09;0.70;;;0.67;;
6414;SDS011;3240;48.790;9.210;2023-05-10T07:41:37;0.90;;;0.73;;
6414;SDS011;3240;48.790;9.210;2023-05-10T07:44:05;0.90;;;0.80;;
6414;SDS011;3240;48.790;9.210;2023-05-10T07:46:34;1.20;;;0.80;;
6414;SDS011;3240;48.790;9.210;2023-05-10T07:49:02;0.77;;;0.60;;
6414;SDS011;3240;48.790;9.210;2023-05-10T07:51:30;1.13;;;0.80;;
6414;SDS011;3240;48.790;9.210;2023-05-10T07:53:59;0.87;;;0.60;;
6414;SDS011;3240;48.790;9.210;2023-05-10T07:56:28;0.80;;;0.57;;
6414;SDS011;3240;48.790;9.210;2023-05-10T07:58:55;0.80;;;0.60;;
6414;SDS011;3240;48.790;9.210;2023-05-10T08:01:24;1.47;;;0.97;;
6414;SDS011;3240;48.790;9.210;2023-05-10T08:03:52;0.70;;;0.60;;
6414;SDS011;3240;48.790;9.210;2023-05-10T08:06:20;1.03;;;0.93;;
6414;SDS011;3240;48.790;9.210;2023-05-10T08:08:49;0.80;;;0.50;;
6414;SDS011;3240;48.790;9.210;2023-05-10T08:11:17;1.20;;;0.63;;
6414;SDS011;3240;48.790;9.210;2023-05-10T08:13:46;0.60;;;0.50;;
6414;SDS011;3240;48.790;9.210;2023-05-10T08:16:14;2.57;;;0.60;;
6414;SDS011;3240;48.790;9.210;2023-05-10T08:18:43;0.60;;;0.60;;
6414;SDS011;3240;48.790;9.210;2023-05-10T08:21:10;1.30;;;0.63;;
6414;SDS011;3240;48.790;9.210;2023-05-10T08:23:39;1.27;;;0.80;;
6414;SDS011;3240;48.790;9.210;2023-05-10T08:26:07;1.67;;;0.67;;
6414;SDS011;3240;48.790;9.210;2023-05-10T08:28:35;0.70;;;0.60;;
6414;SDS011;3240;48.790;9.210;2023-05-10T08:31:04;1.10;;;0.60;;
6414;SDS011;3240;48.790;9.210;2023-05-10T08:33:32;0.80;;;0.67;;
6414;SDS011;3240;48.790;9.210;2023-05-10T08:36:00;2.40;;;0.80;;
6414;SDS011;3240;48.790;9.210;2023-05-10T08:38:29;0.90;;;0.60;;
6414;SDS011;3240;48.790;9.210;2023-05-10T08:40:57;0.60;;;0.50;;
6414;SDS011;3240;48.790;9.210;2023-05-10T08:43:26;0.77;;;0.50;;
6414;SDS011;3240;48.790;9.210;2023-05-10T08:45:54;0.60;;;0.60;;
6414;SDS011;3240;48.790;9.210;2023-05-10T08:48:23;0.60;;;0.50;;
6414;SDS011;3240;48.790;9.210;2023-05-10T08:50:52;0.80;;;0.70;;
6414;SDS011;3240;48.790;9.210;2023-05-10T08:53:19;0.80;;;0.57;;
6414;SDS011;3240;48.790;9.210;2023-05-10T08:55:47;0.60;;;0.50;;
6414;SDS011;3240;48.790;9.210;2023-05-10T08:58:16;0.80;;;0.60;;
6414;SDS011;3240;48.790;9.210;2023-05-10T09:00:44;0.70;;;0.70;;
6414;SDS011;3240;48.790;9.210;2023-05-10T09:03:12;0.60;;;0.50;;
6414;SDS011;3240;48.790;9.210;2023-05-10T09:05:41;0.73;;;0.60;;
6414;SDS011;3240;48.790;9.210;2023-05-10T09:08:09;0.87;;;0.57;;
6414;SDS011;3240;48.790;9.210;2023-05-10T09:10:38;1.37;;;0.50;;
6414;SDS011;3240;48.790;9.210;2023-05-10T09:13:06;1.87;;;0.40;;
6414;SDS011;3240;48.790;9.210;2023-05-10T09:15:34;1.08;;;0.70;;
6414;SDS011;3240;48.790;9.210;2023-05-10T09:18:02;0.70;;;0.47;;
6414;SDS011;3240;48.790;9.210;2023-05-10T09:20:31;0.70;;;0.40;;
6414;SDS011;3240;48.790;9.210;2023-05-10T09:22:59;0.50;;;0.37;;
6414;SDS011;3240;48.790;9.210;2023-05-10T09:25:27;0.83;;;0.40;;
6414;SDS011;3240;48.790;9.210;2023-05-10T09:27:56;0.87;;;0.60;;
6414;SDS011;3240;48.790;9.210;2023-05-10T09:32:59;0.87;;;0.50;;
6414;SDS011;3240;48.790;9.210;2023-05-10T09:35:29;0.87;;;0.50;;
6414;SDS011;3240;48.790;9.210;2023-05-10T09:37:57;0.60;;;0.40;;
6414;SDS011;3240;48.790;9.210;2023-05-10T09:40:25;1.47;;;0.50;;
6414;SDS011;3240;48.790;9.210;2023-05-10T09:42:54;2.73;;;0.60;;
6414;SDS011;3240;48.790;9.210;2023-05-10T09:45:23;0.70;;;0.60;;
6414;SDS011;3240;48.790;9.210;2023-05-10T09:47:51;0.80;;;0.60;;
6414;SDS011;3240;48.790;9.210;2023-05-10T09:50:20;1.60;;;0.70;;
6414;SDS011;3240;48.790;9.210;2023-05-10T09:52:49;0.97;;;0.40;;
6414;SDS011;3240;48.790;9.210;2023-05-10T09:55:17;0.73;;;0.57;;
6414;SDS011;3240;48.790;9.210;2023-05-10T09:57:45;0.60;;;0.50;;
6414;SDS011;3240;48.790;9.210;2023-05-10T10:00:16;1.10;;;0.50;;
6414;SDS011;3240;48.790;9.210;2023-05-10T10:02:47;0.60;;;0.40;;
6414;SDS011;3240;48.790;9.210;2023-05-10T10:05:15;2.00;;;0.50;;
6414;SDS011;3240;48.790;9.210;2023-05-10T10:07:43;1.20;;;0.40;;
6414;SDS011;3240;48.790;9.210;2023-05-10T10:10:11;0.73;;;0.40;;
6414;SDS011;3240;48.790;9.210;2023-05-10T10:12:40;0.77;;;0.50;;
6414;SDS011;3240;48.790;9.210;2023-05-10T10:15:08;0.70;;;0.50;;
6414;SDS011;3240;48.790;9.210;2023-05-10T10:17:36;0.70;;;0.40;;
6414;SDS011;3240;48.790;9.210;2023-05-10T10:20:06;0.73;;;0.50;;
6414;SDS011;3240;48.790;9.210;2023-05-10T10:22:34;0.50;;;0.40;;
6414;SDS011;3240;48.790;9.210;2023-05-10T10:25:03;0.60;;;0.40;;
6414;SDS011;3240;48.790;9.210;2023-05-10T10:30:23;1.00;;;0.53;;
6414;SDS011;3240;48.790;9.210;2023-05-10T10:33:56;0.70;;;0.40;;
6414;SDS011;3240;48.790;9.210;2023-05-10T10:35:32;1.27;;;0.50;;
6414;SDS011;3240;48.790;9.210;2023-05-10T10:38:00;0.90;;;0.60;;
6414;SDS011;3240;48.790;9.210;2023-05-10T10:40:30;1.43;;;0.70;;
6414;SDS011;3240;48.790;9.210;2023-05-10T10:42:57;0.80;;;0.50;;
6414;SDS011;3240;48.790;9.210;2023-05-10T10:45:26;0.90;;;0.53;;
6414;SDS011;3240;48.790;9.210;2023-05-10T10:48:29;0.70;;;0.50;;
6414;SDS011;3240;48.790;9.210;2023-05-10T10:50:43;0.77;;;0.50;;
6414;SDS011;3240;48.790;9.210;2023-05-10T10:53:11;0.70;;;0.40;;
6414;SDS011;3240;48.790;9.210;2023-05-10T10:55:45;0.60;;;0.40;;
6414;SDS011;3240;48.790;9.210;2023-05-10T10:58:18;0.60;;;0.40;;
6414;SDS011;3240;48.790;9.210;2023-05-10T11:00:41;0.60;;;0.40;;
6414;SDS011;3240;48.790;9.210;2023-05-10T11:03:10;1.90;;;0.60;;
6414;SDS011;3240;48.790;9.210;2023-05-10T11:05:38;2.90;;;0.50;;
6414;SDS011;3240;48.790;9.210;2023-05-10T11:08:09;1.80;;;0.50;;
6414;SDS011;3240;48.790;9.210;2023-05-10T11:10:36;0.50;;;0.40;;
6414;SDS011;3240;48.790;9.210;2023-05-10T11:13:05;2.30;;;0.50;;
6414;SDS011;3240;48.790;9.210;2023-05-10T11:15:35;0.60;;;0.50;;
6414;SDS011;3240;48.790;9.210;2023-05-10T11:20:39;0.60;;;0.40;;
6414;SDS011;3240;48.790;9.210;2023-05-10T11:23:12;0.60;;;0.37;;
6414;SDS011;3240;48.790;9.210;2023-05-10T11:25:41;0.70;;;0.50;;
6414;SDS011;3240;48.790;9.210;2023-05-10T11:28:09;0.60;;;0.40;;
6414;SDS011;3240;48.790;9.210;2023-05-10T11:30:38;0.60;;;0.40;;
6414;SDS011;3240;48.790;9.210;2023-05-10T11:33:06;0.70;;;0.30;;
6414;SDS011;3240;48.790;9.210;2023-05-10T11:35:37;0.80;;;0.40;;
6414;SDS011;3240;48.790;9.210;2023-05-10T11:38:06;1.10;;;0.50;;
6414;SDS011;3240;48.790;9.210;2023-05-10T11:40:35;0.90;;;0.40;;
6414;SDS011;3240;48.790;9.210;2023-05-10T11:43:03;0.60;;;0.40;;
6414;SDS011;3240;48.790;9.210;2023-05-10T11:45:31;0.60;;;0.33;;
6414;SDS011;3240;48.790;9.210;2023-05-10T11:48:00;0.60;;;0.50;;
6414;SDS011;3240;48.790;9.210;2023-05-10T11:50:28;0.80;;;0.43;;
6414;SDS011;3240;48.790;9.210;2023-05-10T11:52:56;1.00;;;0.60;;
6414;SDS011;3240;48.790;9.210;2023-05-10T11:55:24;0.80;;;0.43;;
6414;SDS011;3240;48.790;9.210;2023-05-10T11:57:53;0.60;;;0.43;;
6414;SDS011;3240;48.790;9.210;2023-05-10T12:00:21;0.70;;;0.50;;
6414;SDS011;3240;48.790;9.210;2023-05-10T12:02:49;4.40;;;0.50;;
6414;SDS011;3240;48.790;9.210;2023-05-10T12:05:18;0.70;;;0.50;;
6414;SDS011;3240;48.790;9.210;2023-05-10T12:07:46;0.67;;;0.53;;
6414;SDS011;3240;48.790;9.210;2023-05-10T12:10:14;1.03;;;0.50;;
6414;SDS011;3240;48.790;9.210;2023-05-10T12:12:44;0.70;;;0.50;;
6414;SDS011;3240;48.790;9.210;2023-05-10T12:15:12;0.60;;;0.50;;
6414;SDS011;3240;48.790;9.210;2023-05-10T12:17:39;0.67;;;0.50;;
6414;SDS011;3240;48.790;9.210;2023-05-10T12:20:18;0.90;;;0.50;;
6414;SDS011;3240;48.790;9.210;2023-05-10T12:22:46;1.13;;;0.57;;
6414;SDS011;3240;48.790;9.210;2023-05-10T12:25:14;0.80;;;0.47;;
6414;SDS011;3240;48.790;9.210;2023-05-10T12:30:19;0.50;;;0.40;;
6414;SDS011;3240;48.790;9.210;2023-05-10T12:32:47;1.10;;;0.50;;
6414;SDS011;3240;48.790;9.210;2023-05-10T12:35:15;0.60;;;0.40;;
6414;SDS011;3240;48.790;9.210;2023-05-10T12:37:43;0.60;;;0.50;;
6414;SDS011;3240;48.790;9.210;2023-05-10T12:40:12;1.13;;;0.70;;
6414;SDS011;3240;48.790;9.210;2023-05-10T12:42:40;2.60;;;0.87;;
6414;SDS011;3240;48.790;9.210;2023-05-10T12:45:08;0.70;;;0.50;;
6414;SDS011;3240;48.790;9.210;2023-05-10T12:47:37;0.70;;;0.50;;
6414;SDS011;3240;48.790;9.210;2023-05-10T12:50:05;1.10;;;1.00;;
6414;SDS011;3240;48.790;9.210;2023-05-10T12:52:34;0.60;;;0.50;;
6414;SDS011;3240;48.790;9.210;2023-05-10T12:55:02;0.70;;;0.40;;
6414;SDS011;3240;48.790;9.210;2023-05-10T12:57:30;0.80;;;0.70;;
6414;SDS011;3240;48.790;9.210;2023-05-10T12:59:59;0.50;;;0.40;;
6414;SDS011;3240;48.790;9.210;2023-05-10T13:02:27;1.63;;;0.80;;
6414;SDS011;3240;48.790;9.210;2023-05-10T13:04:55;0.80;;;0.60;;
6414;SDS011;3240;48.790;9.210;2023-05-10T13:07:24;1.83;;;0.70;;
6414;SDS011;3240;48.790;9.210;2023-05-10T13:09:52;0.80;;;0.60;;
6414;SDS011;3240;48.790;9.210;2023-05-10T13:12:20;0.50;;;0.40;;
6414;SDS011;3240;48.790;9.210;2023-05-10T13:14:49;1.00;;;0.70;;
6414;SDS011;3240;48.790;9.210;2023-05-10T13:17:17;1.60;;;0.60;;
6414;SDS011;3240;48.790;9.210;2023-05-10T13:19:45;0.80;;;0.60;;
6414;SDS011;3240;48.790;9.210;2023-05-10T13:22:14;1.13;;;0.60;;
6414;SDS011;3240;48.790;9.210;2023-05-10T13:24:42;1.20;;;0.80;;
6414;SDS011;3240;48.790;9.210;2023-05-10T13:27:10;1.17;;;0.60;;
6414;SDS011;3240;48.790;9.210;2023-05-10T13:29:39;0.83;;;0.43;;
6414;SDS011;3240;48.790;9.210;2023-05-10T13:32:07;0.90;;;0.60;;
6414;SDS011;3240;48.790;9.210;2023-05-10T13:34:35;1.20;;;0.70;;
6414;SDS011;3240;48.790;9.210;2023-05-10T13:37:04;2.20;;;0.70;;
6414;SDS011;3240;48.790;9.210;2023-05-10T13:39:32;0.60;;;0.50;;
6414;SDS011;3240;48.790;9.210;2023-05-10T13:42:00;0.88;;;0.68;;
6414;SDS011;3240;48.790;9.210;2023-05-10T13:44:29;0.70;;;0.50;;
6414;SDS011;3240;48.790;9.210;2023-05-10T13:46:57;0.60;;;0.50;;
6414;SDS011;3240;48.790;9.210;2023-05-10T13:49:26;1.62;;;0.60;;
6414;SDS011;3240;48.790;9.210;2023-05-10T13:51:54;1.80;;;0.60;;
6414;SDS011;3240;48.790;9.210;2023-05-10T13:54:23;0.60;;;0.50;;
6414;SDS011;3240;48.790;9.210;2023-05-10T13:56:50;1.00;;;0.73;;
6414;SDS011;3240;48.790;9.210;2023-05-10T13:59:19;0.77;;;0.50;;
6414;SDS011;3240;48.790;9.210;2023-05-10T14:01:47;0.60;;;0.60;;
6414;SDS011;3240;48.790;9.210;2023-05-10T14:04:15;0.60;;;0.50;;
6414;SDS011;3240;48.790;9.210;2023-05-10T14:06:44;2.20;;;0.70;;
6414;SDS011;3240;48.790;9.210;2023-05-10T14:09:12;0.90;;;0.43;;
6414;SDS011;3240;48.790;9.210;2023-05-10T14:11:40;1.00;;;0.60;;
6414;SDS011;3240;48.790;9.210;2023-05-10T14:14:09;1.23;;;0.70;;
6414;SDS011;3240;48.790;9.210;2023-05-10T14:16:37;2.57;;;0.70;;
6414;SDS011;3240;48.790;9.210;2023-05-10T14:19:05;0.70;;;0.53;;
6414;SDS011;3240;48.790;9.210;2023-05-10T14:21:34;0.90;;;0.40;;
6414;SDS011;3240;48.790;9.210;2023-05-10T14:24:02;1.77;;;0.67;;
6414;SDS011;3240;48.790;9.210;2023-05-10T14:26:30;0.80;;;0.60;;
6414;SDS011;3240;48.790;9.210;2023-05-10T14:28:59;1.20;;;0.70;;
6414;SDS011;3240;48.790;9.210;2023-05-10T14:31:27;0.70;;;0.70;;
6414;SDS011;3240;48.790;9.210;2023-05-10T14:33:55;1.17;;;0.60;;
6414;SDS011;3240;48.790;9.210;2023-05-10T14:36:24;1.03;;;0.60;;
6414;SDS011;3240;48.790;9.210;2023-05-10T14:38:52;0.60;;;0.40;;
6414;SDS011;3240;48.790;9.210;2023-05-10T14:41:20;0.90;;;0.60;;
6414;SDS011;3240;48.790;9.210;2023-05-10T14:43:49;1.30;;;0.60;;
6414;SDS011;3240;48.790;9.210;2023-05-10T14:46:17;0.90;;;0.60;;
6414;SDS011;3240;48.790;9.210;2023-05-10T14:48:45;0.73;;;0.60;;
6414;SDS011;3240;48.790;9.210;2023-05-10T14:51:14;1.00;;;0.70;;
6414;SDS011;3240;48.790;9.210;2023-05-10T14:53:42;0.60;;;0.50;;
6414;SDS011;3240;48.790;9.210;2023-05-10T14:56:10;1.37;;;0.60;;
6414;SDS011;3240;48.790;9.210;2023-05-10T14:58:39;1.93;;;0.50;;
6414;SDS011;3240;48.790;9.210;2023-05-10T15:01:07;1.00;;;0.50;;
6414;SDS011;3240;48.790;9.210;2023-05-10T15:03:35;2.50;;;0.80;;
6414;SDS011;3240;48.790;9.210;2023-05-10T15:06:04;0.70;;;0.50;;
6414;SDS011;3240;48.790;9.210;2023-05-10T15:08:32;1.20;;;0.60;;
6414;SDS011;3240;48.790;9.210;2023-05-10T15:11:00;0.80;;;0.60;;
6414;SDS011;3240;48.790;9.210;2023-05-10T15:13:29;0.90;;;0.60;;
6414;SDS011;3240;48.790;9.210;2023-05-10T15:15:57;1.10;;;0.50;;
6414;SDS011;3240;48.790;9.210;2023-05-10T15:18:25;0.83;;;0.50;;
6414;SDS011;3240;48.790;9.210;2023-05-10T15:20:54;1.00;;;0.50;;
6414;SDS011;3240;48.790;9.210;2023-05-10T15:23:22;0.70;;;0.50;;
6414;SDS011;3240;48.790;9.210;2023-05-10T15:25:50;1.37;;;0.50;;
6414;SDS011;3240;48.790;9.210;2023-05-10T15:28:19;1.70;;;0.63;;
6414;SDS011;3240;48.790;9.210;2023-05-10T15:30:47;0.70;;;0.50;;
6414;SDS011;3240;48.790;9.210;2023-05-10T15:33:15;0.50;;;0.50;;
6414;SDS011;3240;48.790;9.210;2023-05-10T15:35:44;1.43;;;0.50;;
6414;SDS011;3240;48.790;9.210;2023-05-10T15:38:12;2.22;;;0.68;;
6414;SDS011;3240;48.790;9.210;2023-05-10T15:40:40;0.60;;;0.40;;